sensor_id;sensor_type;location;lat;lon;timestamp;P1;durP1;ratioP1;P2;durP2;ratioP2
58752;SDS011;44525;46.052;13.610;2023-05-23T00:01:18;10.23;;;7.70;;
58752;SDS011;44525;46.052;13.610;2023-05-23T00:03:45;12.32;;;7.38;;
58752;SDS011;44525;46.052;13.610;2023-05-23T00:06:11;11.73;;;7.60;;
58752;SDS011;44525;46.052;13.610;2023-05-23T00:08:36;11.85;;;8.07;;
58752;SDS011;44525;46.052;13.610;2023-05-23T00:11:01;12.02;;;8.57;;
58752;SDS011;44525;46.052;13.610;2023-05-23T00:13:27;11.10;;;7.93;;
58752;SDS011;44525;46.052;13.610;2023-05-23T00:15:52;11.07;;;7.95;;
58752;SDS011;44525;46.052;13.610;2023-05-23T00:18:18;13.23;;;8.02;;
58752;SDS011;44525;46.052;13.610;2023-05-23T00:20:43;11.27;;;7.88;;
58752;SDS011;44525;46.052;13.610;2023-05-23T00:23:09;12.30;;;7.95;;
58752;SDS011;44525;46.052;13.610;2023-05-23T00:25:37;11.57;;;7.85;;
58752;SDS011;44525;46.052;13.610;2023-05-23T00:28:04;13.32;;;8.43;;
58752;SDS011;44525;46.052;13.610;2023-05-23T00:30:30;11.90;;;7.70;;
58752;SDS011;44525;46.052;13.610;2023-05-23T00:32:57;11.00;;;8.38;;
58752;SDS011;44525;46.052;13.610;2023-05-23T00:35:24;12.68;;;7.90;;
58752;SDS011;44525;46.052;13.610;2023-05-23T00:37:50;12.65;;;7.85;;
58752;SDS011;44525;46.052;13.610;2023-05-23T00:40:19;10.23;;;7.50;;
58752;SDS011;44525;46.052;13.610;2023-05-23T00:42:45;10.35;;;7.47;;
58752;SDS011;44525;46.052;13.610;2023-05-23T00:45:11;10.55;;;8.32;;
58752;SDS011;44525;46.052;13.610;2023-05-23T00:47:39;11.52;;;8.20;;
58752;SDS011;44525;46.052;13.610;2023-05-23T00:50:10;10.95;;;8.18;;
58752;SDS011;44525;46.052;13.610;2023-05-23T00:52:37;10.85;;;8.38;;
58752;SDS011;44525;46.052;13.610;2023-05-23T00:55:03;13.63;;;8.27;;
58752;SDS011;44525;46.052;13.610;2023-05-23T00:57:29;11.38;;;8.07;;
58752;SDS011;44525;46.052;13.610;2023-05-23T00:59:55;13.88;;;8.38;;
58752;SDS011;44525;46.052;13.610;2023-05-23T01:02:21;13.68;;;8.70;;
58752;SDS011;44525;46.052;13.610;2023-05-23T01:04:49;18.45;;;10.57;;
58752;SDS011;44525;46.052;13.610;2023-05-23T01:07:18;12.35;;;8.93;;
58752;SDS011;44525;46.052;13.610;2023-05-23T01:09:47;16.17;;;11.63;;
58752;SDS011;44525;46.052;13.610;2023-05-23T01:12:16;15.00;;;10.07;;
58752;SDS011;44525;46.052;13.610;2023-05-23T01:20:06;13.07;;;8.88;;
58752;SDS011;44525;46.052;13.610;2023-05-23T01:28:27;12.57;;;9.32;;
58752;SDS011;44525;46.052;13.610;2023-05-23T01:30:58;13.30;;;9.40;;
58752;SDS011;44525;46.052;13.610;2023-05-23T01:33:27;13.65;;;9.20;;
58752;SDS011;44525;46.052;13.610;2023-05-23T01:35:55;12.68;;;9.02;;
58752;SDS011;44525;46.052;13.610;2023-05-23T01:38:24;12.77;;;8.95;;
58752;SDS011;44525;46.052;13.610;2023-05-23T01:40:50;14.13;;;8.20;;
58752;SDS011;44525;46.052;13.610;2023-05-23T01:43:15;14.80;;;8.27;;
58752;SDS011;44525;46.052;13.610;2023-05-23T01:45:41;14.20;;;8.43;;
58752;SDS011;44525;46.052;13.610;2023-05-23T01:48:07;11.60;;;8.73;;
58752;SDS011;44525;46.052;13.610;2023-05-23T01:50:34;11.85;;;8.35;;
58752;SDS011;44525;46.052;13.610;2023-05-23T01:53:00;11.63;;;8.30;;
58752;SDS011;44525;46.052;13.610;2023-05-23T01:55:26;12.90;;;8.63;;
58752;SDS011;44525;46.052;13.610;2023-05-23T01:57:54;12.00;;;8.55;;
58752;SDS011;44525;46.052;13.610;2023-05-23T02:00:20;12.75;;;8.48;;
58752;SDS011;44525;46.052;13.610;2023-05-23T02:02:46;12.98;;;8.38;;
58752;SDS011;44525;46.052;13.610;2023-05-23T02:05:12;13.55;;;8.75;;
58752;SDS011;44525;46.052;13.610;2023-05-23T02:07:37;11.20;;;8.30;;
58752;SDS011;44525;46.052;13.610;2023-05-23T02:10:03;14.25;;;9.65;;
58752;SDS011;44525;46.052;13.610;2023-05-23T02:12:31;13.57;;;10.00;;
58752;SDS011;44525;46.052;13.610;2023-05-23T02:14:57;14.75;;;9.57;;
58752;SDS011;44525;46.052;13.610;2023-05-23T02:17:22;13.45;;;9.90;;
58752;SDS011;44525;46.052;13.610;2023-05-23T02:19:48;11.70;;;8.50;;
58752;SDS011;44525;46.052;13.610;2023-05-23T02:22:13;12.40;;;8.50;;
58752;SDS011;44525;46.052;13.610;2023-05-23T02:24:39;12.57;;;9.25;;
58752;SDS011;44525;46.052;13.610;2023-05-23T02:27:04;11.70;;;8.85;;
58752;SDS011;44525;46.052;13.610;2023-05-23T02:29:30;12.77;;;9.43;;
58752;SDS011;44525;46.052;13.610;2023-05-23T02:31:56;11.15;;;8.32;;
58752;SDS011;44525;46.052;13.610;2023-05-23T02:34:21;12.18;;;9.00;;
58752;SDS011;44525;46.052;13.610;2023-05-23T02:36:47;12.90;;;9.77;;
58752;SDS011;44525;46.052;13.610;2023-05-23T02:39:12;14.15;;;9.93;;
58752;SDS011;44525;46.052;13.610;2023-05-23T02:41:37;11.45;;;9.15;;
58752;SDS011;44525;46.052;13.610;2023-05-23T02:44:03;11.57;;;8.93;;
58752;SDS011;44525;46.052;13.610;2023-05-23T02:46:28;14.07;;;9.10;;
58752;SDS011;44525;46.052;13.610;2023-05-23T02:48:53;11.65;;;8.55;;
58752;SDS011;44525;46.052;13.610;2023-05-23T02:51:19;12.35;;;8.50;;
58752;SDS011;44525;46.052;13.610;2023-05-23T02:53:45;12.10;;;8.70;;
58752;SDS011;44525;46.052;13.610;2023-05-23T02:56:10;12.68;;;9.43;;
58752;SDS011;44525;46.052;13.610;2023-05-23T02:58:37;11.00;;;8.30;;
58752;SDS011;44525;46.052;13.610;2023-05-23T03:01:04;15.75;;;9.02;;
58752;SDS011;44525;46.052;13.610;2023-05-23T03:03:29;13.57;;;9.32;;
58752;SDS011;44525;46.052;13.610;2023-05-23T03:05:58;14.95;;;9.55;;
58752;SDS011;44525;46.052;13.610;2023-05-23T03:08:23;14.30;;;8.80;;
58752;SDS011;44525;46.052;13.610;2023-05-23T03:10:49;13.68;;;8.98;;
58752;SDS011;44525;46.052;13.610;2023-05-23T03:13:14;13.70;;;9.13;;
58752;SDS011;44525;46.052;13.610;2023-05-23T03:15:40;13.88;;;8.73;;
58752;SDS011;44525;46.052;13.610;2023-05-23T03:18:05;12.07;;;8.50;;
58752;SDS011;44525;46.052;13.610;2023-05-23T03:20:31;11.57;;;9.00;;
58752;SDS011;44525;46.052;13.610;2023-05-23T03:22:56;11.77;;;8.68;;
58752;SDS011;44525;46.052;13.610;2023-05-23T03:25:21;12.98;;;8.95;;
58752;SDS011;44525;46.052;13.610;2023-05-23T03:27:47;14.73;;;9.07;;
58752;SDS011;44525;46.052;13.610;2023-05-23T03:30:12;13.35;;;8.98;;
58752;SDS011;44525;46.052;13.610;2023-05-23T03:32:37;11.63;;;8.73;;
58752;SDS011;44525;46.052;13.610;2023-05-23T03:35:03;14.85;;;9.07;;
58752;SDS011;44525;46.052;13.610;2023-05-23T03:37:28;14.63;;;9.68;;
58752;SDS011;44525;46.052;13.610;2023-05-23T03:39:54;14.30;;;8.93;;
58752;SDS011;44525;46.052;13.610;2023-05-23T03:42:19;17.48;;;9.10;;
58752;SDS011;44525;46.052;13.610;2023-05-23T03:44:44;14.10;;;8.85;;
58752;SDS011;44525;46.052;13.610;2023-05-23T03:47:10;12.90;;;8.70;;
58752;SDS011;44525;46.052;13.610;2023-05-23T03:49:35;14.93;;;8.75;;
58752;SDS011;44525;46.052;13.610;2023-05-23T03:52:00;11.35;;;8.35;;
58752;SDS011;44525;46.052;13.610;2023-05-23T03:54:26;10.82;;;8.60;;
58752;SDS011;44525;46.052;13.610;2023-05-23T03:56:51;13.18;;;9.02;;
58752;SDS011;44525;46.052;13.610;2023-05-23T03:59:17;12.05;;;8.93;;
58752;SDS011;44525;46.052;13.610;2023-05-23T04:01:42;12.10;;;8.55;;
58752;SDS011;44525;46.052;13.610;2023-05-23T04:04:07;11.52;;;8.85;;
58752;SDS011;44525;46.052;13.610;2023-05-23T04:06:33;14.55;;;9.43;;
58752;SDS011;44525;46.052;13.610;2023-05-23T04:08:58;14.13;;;9.18;;
58752;SDS011;44525;46.052;13.610;2023-05-23T04:11:24;12.50;;;9.15;;
58752;SDS011;44525;46.052;13.610;2023-05-23T04:13:49;12.98;;;9.18;;
58752;SDS011;44525;46.052;13.610;2023-05-23T04:16:16;14.70;;;9.20;;
58752;SDS011;44525;46.052;13.610;2023-05-23T04:18:41;12.45;;;8.82;;
58752;SDS011;44525;46.052;13.610;2023-05-23T04:21:07;16.20;;;10.20;;
58752;SDS011;44525;46.052;13.610;2023-05-23T04:23:32;12.65;;;8.55;;
58752;SDS011;44525;46.052;13.610;2023-05-23T04:25:58;13.40;;;8.80;;
58752;SDS011;44525;46.052;13.610;2023-05-23T04:28:24;12.65;;;8.98;;
58752;SDS011;44525;46.052;13.610;2023-05-23T04:30:51;12.95;;;8.85;;
58752;SDS011;44525;46.052;13.610;2023-05-23T04:33:17;12.57;;;8.38;;
58752;SDS011;44525;46.052;13.610;2023-05-23T04:35:42;12.93;;;8.98;;
58752;SDS011;44525;46.052;13.610;2023-05-23T04:38:08;13.00;;;9.40;;
58752;SDS011;44525;46.052;13.610;2023-05-23T04:40:34;13.65;;;8.85;;
58752;SDS011;44525;46.052;13.610;2023-05-23T04:42:59;11.93;;;8.40;;
58752;SDS011;44525;46.052;13.610;2023-05-23T04:45:25;11.32;;;9.07;;
58752;SDS011;44525;46.052;13.610;2023-05-23T04:47:50;11.38;;;8.65;;
58752;SDS011;44525;46.052;13.610;2023-05-23T04:50:18;13.07;;;9.35;;
58752;SDS011;44525;46.052;13.610;2023-05-23T04:52:46;15.38;;;9.55;;
58752;SDS011;44525;46.052;13.610;2023-05-23T04:55:11;13.13;;;8.30;;
58752;SDS011;44525;46.052;13.610;2023-05-23T04:57:37;14.63;;;8.90;;
58752;SDS011;44525;46.052;13.610;2023-05-23T05:00:03;11.90;;;8.20;;
58752;SDS011;44525;46.052;13.610;2023-05-23T05:02:34;11.55;;;8.68;;
58752;SDS011;44525;46.052;13.610;2023-05-23T05:05:03;12.25;;;8.80;;
58752;SDS011;44525;46.052;13.610;2023-05-23T05:07:28;14.23;;;8.10;;
58752;SDS011;44525;46.052;13.610;2023-05-23T05:09:54;13.38;;;8.70;;
58752;SDS011;44525;46.052;13.610;2023-05-23T05:12:20;11.35;;;8.25;;
58752;SDS011;44525;46.052;13.610;2023-05-23T05:14:45;12.07;;;8.55;;
58752;SDS011;44525;46.052;13.610;2023-05-23T05:17:10;13.27;;;8.70;;
58752;SDS011;44525;46.052;13.610;2023-05-23T05:19:36;10.73;;;7.78;;
58752;SDS011;44525;46.052;13.610;2023-05-23T05:22:02;12.55;;;7.72;;
58752;SDS011;44525;46.052;13.610;2023-05-23T05:24:27;12.07;;;8.57;;
58752;SDS011;44525;46.052;13.610;2023-05-23T05:26:53;10.90;;;7.78;;
58752;SDS011;44525;46.052;13.610;2023-05-23T05:29:19;12.98;;;7.68;;
58752;SDS011;44525;46.052;13.610;2023-05-23T05:31:44;20.52;;;9.02;;
58752;SDS011;44525;46.052;13.610;2023-05-23T05:34:11;11.25;;;8.13;;
58752;SDS011;44525;46.052;13.610;2023-05-23T05:36:37;12.93;;;7.70;;
58752;SDS011;44525;46.052;13.610;2023-05-23T05:39:02;11.07;;;7.32;;
58752;SDS011;44525;46.052;13.610;2023-05-23T05:41:28;9.93;;;7.75;;
58752;SDS011;44525;46.052;13.610;2023-05-23T05:43:53;11.65;;;7.78;;
58752;SDS011;44525;46.052;13.610;2023-05-23T05:46:19;11.55;;;7.88;;
58752;SDS011;44525;46.052;13.610;2023-05-23T05:48:44;13.07;;;8.63;;
58752;SDS011;44525;46.052;13.610;2023-05-23T05:51:10;11.18;;;7.97;;
58752;SDS011;44525;46.052;13.610;2023-05-23T05:53:36;11.95;;;8.07;;
58752;SDS011;44525;46.052;13.610;2023-05-23T05:56:01;11.20;;;7.53;;
58752;SDS011;44525;46.052;13.610;2023-05-23T05:58:26;12.55;;;8.55;;
58752;SDS011;44525;46.052;13.610;2023-05-23T06:00:52;11.85;;;7.82;;
58752;SDS011;44525;46.052;13.610;2023-05-23T06:03:17;11.40;;;7.97;;
58752;SDS011;44525;46.052;13.610;2023-05-23T06:05:43;12.27;;;7.70;;
58752;SDS011;44525;46.052;13.610;2023-05-23T06:08:08;14.27;;;8.23;;
58752;SDS011;44525;46.052;13.610;2023-05-23T06:10:36;10.45;;;7.68;;
58752;SDS011;44525;46.052;13.610;2023-05-23T06:13:03;11.32;;;7.88;;
58752;SDS011;44525;46.052;13.610;2023-05-23T06:15:28;11.23;;;7.20;;
58752;SDS011;44525;46.052;13.610;2023-05-23T06:17:54;13.40;;;8.40;;
58752;SDS011;44525;46.052;13.610;2023-05-23T06:20:19;11.38;;;7.85;;
58752;SDS011;44525;46.052;13.610;2023-05-23T06:22:45;13.30;;;8.10;;
58752;SDS011;44525;46.052;13.610;2023-05-23T06:25:10;13.57;;;7.68;;
58752;SDS011;44525;46.052;13.610;2023-05-23T06:27:36;11.60;;;7.70;;
58752;SDS011;44525;46.052;13.610;2023-05-23T06:30:02;11.15;;;7.10;;
58752;SDS011;44525;46.052;13.610;2023-05-23T06:32:31;10.63;;;7.22;;
58752;SDS011;44525;46.052;13.610;2023-05-23T06:34:56;11.05;;;7.60;;
58752;SDS011;44525;46.052;13.610;2023-05-23T06:37:22;14.70;;;7.70;;
58752;SDS011;44525;46.052;13.610;2023-05-23T06:39:47;12.35;;;7.85;;
58752;SDS011;44525;46.052;13.610;2023-05-23T06:42:13;10.85;;;7.57;;
58752;SDS011;44525;46.052;13.610;2023-05-23T06:44:39;10.80;;;7.38;;
58752;SDS011;44525;46.052;13.610;2023-05-23T06:47:04;11.50;;;7.40;;
58752;SDS011;44525;46.052;13.610;2023-05-23T06:49:30;13.15;;;7.15;;
58752;SDS011;44525;46.052;13.610;2023-05-23T06:51:55;10.07;;;6.63;;
58752;SDS011;44525;46.052;13.610;2023-05-23T06:54:20;11.18;;;6.90;;
58752;SDS011;44525;46.052;13.610;2023-05-23T06:56:46;11.45;;;7.22;;
58752;SDS011;44525;46.052;13.610;2023-05-23T06:59:11;10.15;;;7.03;;
58752;SDS011;44525;46.052;13.610;2023-05-23T07:01:36;11.65;;;7.55;;
58752;SDS011;44525;46.052;13.610;2023-05-23T07:04:02;11.82;;;7.13;;
58752;SDS011;44525;46.052;13.610;2023-05-23T07:06:27;11.10;;;7.22;;
58752;SDS011;44525;46.052;13.610;2023-05-23T07:08:53;10.43;;;6.72;;
58752;SDS011;44525;46.052;13.610;2023-05-23T07:11:21;13.48;;;8.90;;
58752;SDS011;44525;46.052;13.610;2023-05-23T07:13:47;10.40;;;7.40;;
58752;SDS011;44525;46.052;13.610;2023-05-23T07:16:12;12.25;;;7.15;;
58752;SDS011;44525;46.052;13.610;2023-05-23T07:18:38;9.85;;;6.60;;
58752;SDS011;44525;46.052;13.610;2023-05-23T07:21:03;10.40;;;7.00;;
58752;SDS011;44525;46.052;13.610;2023-05-23T07:23:31;10.88;;;7.47;;
58752;SDS011;44525;46.052;13.610;2023-05-23T07:25:57;14.02;;;6.80;;
58752;SDS011;44525;46.052;13.610;2023-05-23T07:28:22;12.00;;;7.05;;
58752;SDS011;44525;46.052;13.610;2023-05-23T07:30:50;10.45;;;6.97;;
58752;SDS011;44525;46.052;13.610;2023-05-23T07:33:15;9.60;;;7.20;;
58752;SDS011;44525;46.052;13.610;2023-05-23T07:35:40;13.85;;;6.88;;
58752;SDS011;44525;46.052;13.610;2023-05-23T07:38:06;10.48;;;6.97;;
58752;SDS011;44525;46.052;13.610;2023-05-23T07:40:31;11.73;;;7.10;;
58752;SDS011;44525;46.052;13.610;2023-05-23T07:42:57;10.45;;;6.85;;
58752;SDS011;44525;46.052;13.610;2023-05-23T07:45:24;11.82;;;7.50;;
58752;SDS011;44525;46.052;13.610;2023-05-23T07:47:49;12.70;;;7.38;;
58752;SDS011;44525;46.052;13.610;2023-05-23T07:50:15;9.77;;;6.72;;
58752;SDS011;44525;46.052;13.610;2023-05-23T07:52:40;9.70;;;6.28;;
58752;SDS011;44525;46.052;13.610;2023-05-23T07:55:06;10.70;;;6.90;;
58752;SDS011;44525;46.052;13.610;2023-05-23T07:57:32;11.82;;;6.95;;
58752;SDS011;44525;46.052;13.610;2023-05-23T07:59:57;10.75;;;7.20;;
58752;SDS011;44525;46.052;13.610;2023-05-23T08:02:23;12.48;;;7.43;;
58752;SDS011;44525;46.052;13.610;2023-05-23T08:04:48;9.93;;;6.57;;
58752;SDS011;44525;46.052;13.610;2023-05-23T08:07:14;10.52;;;6.78;;
58752;SDS011;44525;46.052;13.610;2023-05-23T08:09:39;11.88;;;7.38;;
58752;SDS011;44525;46.052;13.610;2023-05-23T08:12:06;12.25;;;7.28;;
58752;SDS011;44525;46.052;13.610;2023-05-23T08:14:31;10.10;;;6.35;;
58752;SDS011;44525;46.052;13.610;2023-05-23T08:16:57;8.77;;;6.60;;
58752;SDS011;44525;46.052;13.610;2023-05-23T08:19:22;11.18;;;7.20;;
58752;SDS011;44525;46.052;13.610;2023-05-23T08:21:48;10.48;;;6.68;;
58752;SDS011;44525;46.052;13.610;2023-05-23T08:24:13;8.98;;;6.35;;
58752;SDS011;44525;46.052;13.610;2023-05-23T08:26:38;13.50;;;7.18;;
58752;SDS011;44525;46.052;13.610;2023-05-23T08:29:04;13.38;;;7.13;;
58752;SDS011;44525;46.052;13.610;2023-05-23T08:31:30;13.57;;;7.78;;
58752;SDS011;44525;46.052;13.610;2023-05-23T08:33:56;11.02;;;7.28;;
58752;SDS011;44525;46.052;13.610;2023-05-23T08:36:23;10.52;;;6.63;;
58752;SDS011;44525;46.052;13.610;2023-05-23T08:38:49;11.73;;;7.05;;
58752;SDS011;44525;46.052;13.610;2023-05-23T08:41:15;12.05;;;6.95;;
58752;SDS011;44525;46.052;13.610;2023-05-23T08:43:43;10.90;;;7.00;;
58752;SDS011;44525;46.052;13.610;2023-05-23T08:46:10;13.82;;;7.25;;
58752;SDS011;44525;46.052;13.610;2023-05-23T08:48:36;9.25;;;6.53;;
58752;SDS011;44525;46.052;13.610;2023-05-23T08:51:02;11.10;;;6.50;;
58752;SDS011;44525;46.052;13.610;2023-05-23T08:53:28;12.13;;;7.38;;
58752;SDS011;44525;46.052;13.610;2023-05-23T08:55:56;10.13;;;6.65;;
58752;SDS011;44525;46.052;13.610;2023-05-23T08:58:26;8.95;;;6.10;;
58752;SDS011;44525;46.052;13.610;2023-05-23T09:00:54;8.88;;;6.55;;
58752;SDS011;44525;46.052;13.610;2023-05-23T09:03:19;10.15;;;6.93;;
58752;SDS011;44525;46.052;13.610;2023-05-23T09:05:46;9.88;;;6.90;;
58752;SDS011;44525;46.052;13.610;2023-05-23T09:08:13;9.57;;;6.45;;
58752;SDS011;44525;46.052;13.610;2023-05-23T09:10:40;11.75;;;6.70;;
58752;SDS011;44525;46.052;13.610;2023-05-23T09:13:06;10.60;;;6.68;;
58752;SDS011;44525;46.052;13.610;2023-05-23T09:15:31;9.50;;;5.95;;
58752;SDS011;44525;46.052;13.610;2023-05-23T09:18:00;9.57;;;6.22;;
58752;SDS011;44525;46.052;13.610;2023-05-23T09:20:28;8.80;;;6.10;;
58752;SDS011;44525;46.052;13.610;2023-05-23T09:22:53;10.02;;;5.97;;
58752;SDS011;44525;46.052;13.610;2023-05-23T09:25:19;10.57;;;6.00;;
58752;SDS011;44525;46.052;13.610;2023-05-23T09:27:45;7.15;;;5.40;;
58752;SDS011;44525;46.052;13.610;2023-05-23T09:30:11;8.77;;;5.85;;
58752;SDS011;44525;46.052;13.610;2023-05-23T09:32:37;10.63;;;5.95;;
58752;SDS011;44525;46.052;13.610;2023-05-23T09:35:04;7.82;;;5.57;;
58752;SDS011;44525;46.052;13.610;2023-05-23T09:37:34;8.95;;;5.90;;
58752;SDS011;44525;46.052;13.610;2023-05-23T09:40:05;7.60;;;5.38;;
58752;SDS011;44525;46.052;13.610;2023-05-23T09:42:34;11.00;;;5.55;;
58752;SDS011;44525;46.052;13.610;2023-05-23T09:45:00;11.00;;;5.75;;
58752;SDS011;44525;46.052;13.610;2023-05-23T09:47:27;11.43;;;6.38;;
58752;SDS011;44525;46.052;13.610;2023-05-23T09:49:52;7.95;;;5.95;;
58752;SDS011;44525;46.052;13.610;2023-05-23T09:52:18;9.60;;;5.68;;
58752;SDS011;44525;46.052;13.610;2023-05-23T09:54:46;9.20;;;5.72;;
58752;SDS011;44525;46.052;13.610;2023-05-23T09:57:13;7.57;;;5.80;;
58752;SDS011;44525;46.052;13.610;2023-05-23T09:59:41;8.25;;;5.40;;
58752;SDS011;44525;46.052;13.610;2023-05-23T10:02:15;8.02;;;6.05;;
58752;SDS011;44525;46.052;13.610;2023-05-23T10:04:41;10.60;;;5.50;;
58752;SDS011;44525;46.052;13.610;2023-05-23T10:07:18;9.90;;;5.90;;
58752;SDS011;44525;46.052;13.610;2023-05-23T10:09:52;8.73;;;5.35;;
58752;SDS011;44525;46.052;13.610;2023-05-23T10:15:08;7.65;;;5.28;;
58752;SDS011;44525;46.052;13.610;2023-05-23T10:17:46;6.93;;;5.57;;
58752;SDS011;44525;46.052;13.610;2023-05-23T10:20:24;8.85;;;5.68;;
58752;SDS011;44525;46.052;13.610;2023-05-23T10:22:52;7.50;;;5.57;;
58752;SDS011;44525;46.052;13.610;2023-05-23T10:25:18;8.38;;;5.50;;
58752;SDS011;44525;46.052;13.610;2023-05-23T10:27:44;8.10;;;5.90;;
58752;SDS011;44525;46.052;13.610;2023-05-23T10:30:14;11.02;;;5.93;;
58752;SDS011;44525;46.052;13.610;2023-05-23T10:32:39;7.70;;;5.25;;
58752;SDS011;44525;46.052;13.610;2023-05-23T10:36:07;7.40;;;4.97;;
58752;SDS011;44525;46.052;13.610;2023-05-23T10:46:08;11.57;;;5.70;;
58752;SDS011;44525;46.052;13.610;2023-05-23T10:48:40;7.82;;;5.55;;
58752;SDS011;44525;46.052;13.610;2023-05-23T10:51:11;9.35;;;5.88;;
58752;SDS011;44525;46.052;13.610;2023-05-23T10:53:44;12.55;;;5.88;;
58752;SDS011;44525;46.052;13.610;2023-05-23T10:56:18;9.93;;;5.93;;
58752;SDS011;44525;46.052;13.610;2023-05-23T10:58:54;8.45;;;6.03;;
58752;SDS011;44525;46.052;13.610;2023-05-23T11:01:20;9.52;;;5.80;;
58752;SDS011;44525;46.052;13.610;2023-05-23T11:09:08;9.05;;;5.93;;
58752;SDS011;44525;46.052;13.610;2023-05-23T11:14:16;11.98;;;6.30;;
58752;SDS011;44525;46.052;13.610;2023-05-23T11:16:42;11.38;;;6.18;;
58752;SDS011;44525;46.052;13.610;2023-05-23T11:21:42;13.63;;;6.47;;
58752;SDS011;44525;46.052;13.610;2023-05-23T11:24:09;11.77;;;6.57;;
58752;SDS011;44525;46.052;13.610;2023-05-23T11:26:38;13.27;;;7.30;;
58752;SDS011;44525;46.052;13.610;2023-05-23T11:29:07;9.80;;;6.20;;
58752;SDS011;44525;46.052;13.610;2023-05-23T11:31:36;8.73;;;6.60;;
58752;SDS011;44525;46.052;13.610;2023-05-23T11:34:02;13.25;;;7.13;;
58752;SDS011;44525;46.052;13.610;2023-05-23T11:36:27;11.95;;;6.80;;
58752;SDS011;44525;46.052;13.610;2023-05-23T11:38:53;9.32;;;6.28;;
58752;SDS011;44525;46.052;13.610;2023-05-23T11:41:19;9.93;;;6.38;;
58752;SDS011;44525;46.052;13.610;2023-05-23T11:43:51;11.13;;;6.90;;
58752;SDS011;44525;46.052;13.610;2023-05-23T11:46:17;11.43;;;7.32;;
58752;SDS011;44525;46.052;13.610;2023-05-23T11:48:46;11.15;;;6.68;;
58752;SDS011;44525;46.052;13.610;2023-05-23T11:51:12;10.35;;;6.97;;
58752;SDS011;44525;46.052;13.610;2023-05-23T11:53:37;10.10;;;6.20;;
58752;SDS011;44525;46.052;13.610;2023-05-23T11:56:05;12.18;;;6.90;;
58752;SDS011;44525;46.052;13.610;2023-05-23T11:58:34;10.27;;;6.93;;
58752;SDS011;44525;46.052;13.610;2023-05-23T12:01:04;10.80;;;7.22;;
58752;SDS011;44525;46.052;13.610;2023-05-23T12:03:34;10.88;;;6.82;;
58752;SDS011;44525;46.052;13.610;2023-05-23T12:06:09;10.27;;;6.88;;
58752;SDS011;44525;46.052;13.610;2023-05-23T12:08:35;11.77;;;7.28;;
58752;SDS011;44525;46.052;13.610;2023-05-23T12:11:00;10.85;;;7.15;;
58752;SDS011;44525;46.052;13.610;2023-05-23T12:13:27;10.23;;;7.35;;
58752;SDS011;44525;46.052;13.610;2023-05-23T12:15:56;8.70;;;6.63;;
58752;SDS011;44525;46.052;13.610;2023-05-23T12:18:26;8.23;;;6.03;;
58752;SDS011;44525;46.052;13.610;2023-05-23T12:20:52;13.73;;;6.85;;
58752;SDS011;44525;46.052;13.610;2023-05-23T12:23:21;11.63;;;6.47;;
58752;SDS011;44525;46.052;13.610;2023-05-23T12:25:53;10.18;;;6.47;;
58752;SDS011;44525;46.052;13.610;2023-05-23T12:28:20;9.70;;;6.50;;
58752;SDS011;44525;46.052;13.610;2023-05-23T12:30:58;8.25;;;6.30;;
58752;SDS011;44525;46.052;13.610;2023-05-23T12:33:24;11.73;;;6.88;;
58752;SDS011;44525;46.052;13.610;2023-05-23T12:35:49;12.38;;;6.53;;
58752;SDS011;44525;46.052;13.610;2023-05-23T12:38:15;13.32;;;6.53;;
58752;SDS011;44525;46.052;13.610;2023-05-23T12:40:41;8.30;;;6.50;;
58752;SDS011;44525;46.052;13.610;2023-05-23T12:43:08;8.80;;;6.30;;
58752;SDS011;44525;46.052;13.610;2023-05-23T12:45:34;11.52;;;6.78;;
58752;SDS011;44525;46.052;13.610;2023-05-23T12:48:01;11.18;;;7.25;;
58752;SDS011;44525;46.052;13.610;2023-05-23T12:50:27;9.50;;;6.30;;
58752;SDS011;44525;46.052;13.610;2023-05-23T12:52:53;10.88;;;6.97;;
58752;SDS011;44525;46.052;13.610;2023-05-23T12:55:18;8.82;;;6.80;;
58752;SDS011;44525;46.052;13.610;2023-05-23T12:57:43;10.70;;;6.57;;
58752;SDS011;44525;46.052;13.610;2023-05-23T13:00:09;13.45;;;6.32;;
58752;SDS011;44525;46.052;13.610;2023-05-23T13:02:35;10.18;;;6.93;;
58752;SDS011;44525;46.052;13.610;2023-05-23T13:05:01;10.88;;;6.28;;
58752;SDS011;44525;46.052;13.610;2023-05-23T13:07:26;10.18;;;6.10;;
58752;SDS011;44525;46.052;13.610;2023-05-23T13:09:52;10.32;;;6.20;;
58752;SDS011;44525;46.052;13.610;2023-05-23T13:12:17;10.48;;;5.95;;
58752;SDS011;44525;46.052;13.610;2023-05-23T13:14:43;8.88;;;6.78;;
58752;SDS011;44525;46.052;13.610;2023-05-23T13:17:08;8.35;;;6.53;;
58752;SDS011;44525;46.052;13.610;2023-05-23T13:19:34;9.20;;;6.90;;
58752;SDS011;44525;46.052;13.610;2023-05-23T13:21:59;10.23;;;6.65;;
58752;SDS011;44525;46.052;13.610;2023-05-23T13:24:25;11.85;;;6.45;;
58752;SDS011;44525;46.052;13.610;2023-05-23T13:26:51;10.82;;;7.63;;
58752;SDS011;44525;46.052;13.610;2023-05-23T13:29:17;9.20;;;6.53;;
58752;SDS011;44525;46.052;13.610;2023-05-23T13:31:42;9.32;;;7.03;;
58752;SDS011;44525;46.052;13.610;2023-05-23T13:34:07;9.98;;;6.65;;
58752;SDS011;44525;46.052;13.610;2023-05-23T13:36:33;11.50;;;6.80;;
58752;SDS011;44525;46.052;13.610;2023-05-23T13:38:59;12.07;;;6.38;;
58752;SDS011;44525;46.052;13.610;2023-05-23T13:41:25;10.13;;;7.13;;
58752;SDS011;44525;46.052;13.610;2023-05-23T13:43:51;8.55;;;6.82;;
58752;SDS011;44525;46.052;13.610;2023-05-23T13:46:16;11.80;;;7.22;;
58752;SDS011;44525;46.052;13.610;2023-05-23T13:48:42;11.02;;;7.40;;
58752;SDS011;44525;46.052;13.610;2023-05-23T13:51:07;10.93;;;7.00;;
58752;SDS011;44525;46.052;13.610;2023-05-23T13:53:32;11.60;;;7.32;;
58752;SDS011;44525;46.052;13.610;2023-05-23T13:55:58;15.48;;;7.22;;
58752;SDS011;44525;46.052;13.610;2023-05-23T13:58:23;11.75;;;6.88;;
58752;SDS011;44525;46.052;13.610;2023-05-23T14:00:48;12.98;;;6.85;;
58752;SDS011;44525;46.052;13.610;2023-05-23T14:03:14;11.40;;;6.95;;
58752;SDS011;44525;46.052;13.610;2023-05-23T14:05:39;11.32;;;7.03;;
58752;SDS011;44525;46.052;13.610;2023-05-23T14:08:05;11.57;;;7.57;;
58752;SDS011;44525;46.052;13.610;2023-05-23T14:10:30;13.85;;;7.20;;
58752;SDS011;44525;46.052;13.610;2023-05-23T14:12:57;10.32;;;7.00;;
58752;SDS011;44525;46.052;13.610;2023-05-23T14:15:22;11.30;;;7.47;;
58752;SDS011;44525;46.052;13.610;2023-05-23T14:17:48;10.52;;;7.03;;
58752;SDS011;44525;46.052;13.610;2023-05-23T14:20:19;9.25;;;7.25;;
58752;SDS011;44525;46.052;13.610;2023-05-23T14:22:44;10.52;;;7.05;;
58752;SDS011;44525;46.052;13.610;2023-05-23T14:25:10;9.65;;;7.55;;
58752;SDS011;44525;46.052;13.610;2023-05-23T14:27:35;12.05;;;7.43;;
58752;SDS011;44525;46.052;13.610;2023-05-23T14:30:00;9.48;;;7.50;;
58752;SDS011;44525;46.052;13.610;2023-05-23T14:32:26;13.07;;;7.13;;
58752;SDS011;44525;46.052;13.610;2023-05-23T14:34:51;11.27;;;7.32;;
58752;SDS011;44525;46.052;13.610;2023-05-23T14:37:16;11.18;;;7.20;;
58752;SDS011;44525;46.052;13.610;2023-05-23T14:39:42;10.95;;;7.50;;
58752;SDS011;44525;46.052;13.610;2023-05-23T14:42:07;13.63;;;7.68;;
58752;SDS011;44525;46.052;13.610;2023-05-23T14:44:32;11.55;;;7.63;;
58752;SDS011;44525;46.052;13.610;2023-05-23T14:46:58;11.00;;;7.35;;
58752;SDS011;44525;46.052;13.610;2023-05-23T14:49:23;13.25;;;7.50;;
58752;SDS011;44525;46.052;13.610;2023-05-23T14:51:49;11.35;;;7.50;;